DXB weather

Dubai International Airport
Dubai, Dubai Emirate, United Arab Emirates

Public forecast

Using degrees Celsius for public forecast. Weather courtesy of forecast.io.

METAR (pilot weather report)

Retrieved 2017/08/18 02:00 UTC (19 minutes ago):

OMDB 180200Z 13004KT 8000 NSC 33/22 Q1001 NOSIG

TAF (pilot weather forecast)

Forecast is more than 12 hours old.

Retrieved 2017/08/17 00:00 UTC (1 day ago):

TAF OMDB 172259Z 1800/1906 10005KT CAVOK BECMG 1804/1806 17010KT BECMG 1807/1809 31013KT BECMG 1816/1818 12005KT